sensor_id;sensor_type;location;lat;lon;timestamp;P1;durP1;ratioP1;P2;durP2;ratioP2
18251;SDS011;26917;52.328;20.878;2023-03-04T00:00:13;45.75;;;21.00;;
18251;SDS011;26917;52.328;20.878;2023-03-04T00:02:42;44.13;;;20.23;;
18251;SDS011;26917;52.328;20.878;2023-03-04T00:05:13;43.30;;;20.02;;
18251;SDS011;26917;52.328;20.878;2023-03-04T00:07:42;40.30;;;19.35;;
18251;SDS011;26917;52.328;20.878;2023-03-04T00:10:11;42.40;;;19.88;;
18251;SDS011;26917;52.328;20.878;2023-03-04T00:12:40;40.95;;;18.60;;
18251;SDS011;26917;52.328;20.878;2023-03-04T00:15:08;47.28;;;18.42;;
18251;SDS011;26917;52.328;20.878;2023-03-04T00:17:42;46.45;;;19.77;;
18251;SDS011;26917;52.328;20.878;2023-03-04T00:20:12;49.63;;;19.15;;
18251;SDS011;26917;52.328;20.878;2023-03-04T00:22:41;48.80;;;19.60;;
18251;SDS011;26917;52.328;20.878;2023-03-04T00:25:09;41.47;;;18.52;;
18251;SDS011;26917;52.328;20.878;2023-03-04T00:27:57;44.08;;;18.00;;
18251;SDS011;26917;52.328;20.878;2023-03-04T00:30:27;42.58;;;19.95;;
18251;SDS011;26917;52.328;20.878;2023-03-04T00:32:56;35.90;;;17.90;;
18251;SDS011;26917;52.328;20.878;2023-03-04T00:35:24;41.50;;;18.30;;
18251;SDS011;26917;52.328;20.878;2023-03-04T00:37:53;41.97;;;17.20;;
18251;SDS011;26917;52.328;20.878;2023-03-04T00:40:28;49.40;;;20.05;;
18251;SDS011;26917;52.328;20.878;2023-03-04T00:42:58;55.53;;;21.73;;
18251;SDS011;26917;52.328;20.878;2023-03-04T00:45:26;44.45;;;18.83;;
18251;SDS011;26917;52.328;20.878;2023-03-04T00:47:55;47.55;;;20.05;;
18251;SDS011;26917;52.328;20.878;2023-03-04T00:50:23;43.97;;;19.13;;
18251;SDS011;26917;52.328;20.878;2023-03-04T00:52:51;49.47;;;20.15;;
18251;SDS011;26917;52.328;20.878;2023-03-04T00:55:20;51.80;;;22.67;;
18251;SDS011;26917;52.328;20.878;2023-03-04T00:57:48;53.92;;;20.58;;
18251;SDS011;26917;52.328;20.878;2023-03-04T01:00:19;59.22;;;20.83;;
18251;SDS011;26917;52.328;20.878;2023-03-04T01:02:49;54.55;;;19.23;;
18251;SDS011;26917;52.328;20.878;2023-03-04T01:05:18;44.75;;;20.02;;
18251;SDS011;26917;52.328;20.878;2023-03-04T01:07:47;56.33;;;21.95;;
18251;SDS011;26917;52.328;20.878;2023-03-04T01:10:19;57.65;;;20.48;;
18251;SDS011;26917;52.328;20.878;2023-03-04T01:12:47;43.65;;;19.25;;
18251;SDS011;26917;52.328;20.878;2023-03-04T01:15:16;50.88;;;20.92;;
18251;SDS011;26917;52.328;20.878;2023-03-04T01:17:46;49.28;;;20.38;;
18251;SDS011;26917;52.328;20.878;2023-03-04T01:20:15;56.90;;;20.65;;
18251;SDS011;26917;52.328;20.878;2023-03-04T01:22:43;45.03;;;19.98;;
18251;SDS011;26917;52.328;20.878;2023-03-04T01:25:13;44.78;;;18.50;;
18251;SDS011;26917;52.328;20.878;2023-03-04T01:27:42;48.95;;;20.45;;
18251;SDS011;26917;52.328;20.878;2023-03-04T01:30:11;41.13;;;17.50;;
18251;SDS011;26917;52.328;20.878;2023-03-04T01:32:41;56.90;;;21.20;;
18251;SDS011;26917;52.328;20.878;2023-03-04T01:35:11;42.78;;;18.38;;
18251;SDS011;26917;52.328;20.878;2023-03-04T01:37:39;47.03;;;18.73;;
18251;SDS011;26917;52.328;20.878;2023-03-04T01:40:08;47.72;;;20.98;;
18251;SDS011;26917;52.328;20.878;2023-03-04T01:42:37;50.20;;;19.65;;
18251;SDS011;26917;52.328;20.878;2023-03-04T01:45:06;47.97;;;19.73;;
18251;SDS011;26917;52.328;20.878;2023-03-04T01:47:37;49.67;;;19.20;;
18251;SDS011;26917;52.328;20.878;2023-03-04T01:50:09;42.45;;;18.05;;
18251;SDS011;26917;52.328;20.878;2023-03-04T01:52:43;50.58;;;18.77;;
18251;SDS011;26917;52.328;20.878;2023-03-04T01:55:16;43.67;;;17.88;;
18251;SDS011;26917;52.328;20.878;2023-03-04T01:57:47;47.60;;;18.80;;
18251;SDS011;26917;52.328;20.878;2023-03-04T02:00:19;48.25;;;19.33;;
18251;SDS011;26917;52.328;20.878;2023-03-04T02:02:54;52.38;;;19.48;;
18251;SDS011;26917;52.328;20.878;2023-03-04T02:05:26;49.05;;;20.08;;
18251;SDS011;26917;52.328;20.878;2023-03-04T02:07:56;50.45;;;18.52;;
18251;SDS011;26917;52.328;20.878;2023-03-04T02:10:28;43.80;;;17.60;;
18251;SDS011;26917;52.328;20.878;2023-03-04T02:12:57;46.92;;;19.38;;
18251;SDS011;26917;52.328;20.878;2023-03-04T02:15:26;47.00;;;17.05;;
18251;SDS011;26917;52.328;20.878;2023-03-04T02:17:55;46.00;;;18.15;;
18251;SDS011;26917;52.328;20.878;2023-03-04T02:20:32;41.92;;;20.20;;
18251;SDS011;26917;52.328;20.878;2023-03-04T02:23:11;45.15;;;19.10;;
18251;SDS011;26917;52.328;20.878;2023-03-04T02:25:44;50.28;;;19.60;;
18251;SDS011;26917;52.328;20.878;2023-03-04T02:28:43;46.30;;;17.30;;
18251;SDS011;26917;52.328;20.878;2023-03-04T02:31:18;52.88;;;19.88;;
18251;SDS011;26917;52.328;20.878;2023-03-04T02:33:50;47.72;;;20.25;;
18251;SDS011;26917;52.328;20.878;2023-03-04T02:36:21;47.60;;;19.15;;
18251;SDS011;26917;52.328;20.878;2023-03-04T02:38:50;43.22;;;19.05;;
18251;SDS011;26917;52.328;20.878;2023-03-04T02:41:23;48.28;;;18.90;;
18251;SDS011;26917;52.328;20.878;2023-03-04T02:43:54;39.45;;;17.20;;
18251;SDS011;26917;52.328;20.878;2023-03-04T02:46:23;48.42;;;17.77;;
18251;SDS011;26917;52.328;20.878;2023-03-04T02:48:52;53.20;;;20.08;;
18251;SDS011;26917;52.328;20.878;2023-03-04T02:51:21;58.15;;;22.08;;
18251;SDS011;26917;52.328;20.878;2023-03-04T02:53:49;45.95;;;20.27;;
18251;SDS011;26917;52.328;20.878;2023-03-04T02:56:21;50.10;;;19.98;;
18251;SDS011;26917;52.328;20.878;2023-03-04T02:58:50;49.10;;;20.30;;
18251;SDS011;26917;52.328;20.878;2023-03-04T03:01:20;50.80;;;21.80;;
18251;SDS011;26917;52.328;20.878;2023-03-04T03:03:51;50.88;;;21.75;;
18251;SDS011;26917;52.328;20.878;2023-03-04T03:06:23;41.40;;;19.83;;
18251;SDS011;26917;52.328;20.878;2023-03-04T03:08:51;49.03;;;19.98;;
18251;SDS011;26917;52.328;20.878;2023-03-04T03:11:20;51.15;;;20.42;;
18251;SDS011;26917;52.328;20.878;2023-03-04T03:13:48;49.85;;;19.63;;
18251;SDS011;26917;52.328;20.878;2023-03-04T03:16:20;49.10;;;20.13;;
18251;SDS011;26917;52.328;20.878;2023-03-04T03:18:49;46.72;;;18.92;;
18251;SDS011;26917;52.328;20.878;2023-03-04T03:21:19;53.30;;;21.52;;
18251;SDS011;26917;52.328;20.878;2023-03-04T03:23:50;51.30;;;20.60;;
18251;SDS011;26917;52.328;20.878;2023-03-04T03:26:18;53.00;;;22.88;;
18251;SDS011;26917;52.328;20.878;2023-03-04T03:28:49;41.50;;;19.45;;
18251;SDS011;26917;52.328;20.878;2023-03-04T03:31:22;49.88;;;19.58;;
18251;SDS011;26917;52.328;20.878;2023-03-04T03:33:50;51.83;;;21.00;;
18251;SDS011;26917;52.328;20.878;2023-03-04T03:36:19;47.72;;;20.17;;
18251;SDS011;26917;52.328;20.878;2023-03-04T03:38:49;48.85;;;22.00;;
18251;SDS011;26917;52.328;20.878;2023-03-04T03:41:18;46.28;;;20.70;;
18251;SDS011;26917;52.328;20.878;2023-03-04T03:43:47;57.22;;;22.15;;
18251;SDS011;26917;52.328;20.878;2023-03-04T03:46:15;56.15;;;23.10;;
18251;SDS011;26917;52.328;20.878;2023-03-04T03:48:45;41.92;;;19.13;;
18251;SDS011;26917;52.328;20.878;2023-03-04T03:51:13;52.53;;;21.58;;
18251;SDS011;26917;52.328;20.878;2023-03-04T03:53:42;45.75;;;19.25;;
18251;SDS011;26917;52.328;20.878;2023-03-04T03:56:10;48.78;;;20.92;;
18251;SDS011;26917;52.328;20.878;2023-03-04T03:58:42;47.05;;;20.40;;
18251;SDS011;26917;52.328;20.878;2023-03-04T04:01:13;51.45;;;21.80;;
18251;SDS011;26917;52.328;20.878;2023-03-04T04:03:41;50.08;;;21.40;;
18251;SDS011;26917;52.328;20.878;2023-03-04T04:06:12;51.67;;;20.40;;
18251;SDS011;26917;52.328;20.878;2023-03-04T04:08:40;44.13;;;20.63;;
18251;SDS011;26917;52.328;20.878;2023-03-04T04:11:09;50.00;;;20.42;;
18251;SDS011;26917;52.328;20.878;2023-03-04T04:13:38;42.35;;;20.02;;
18251;SDS011;26917;52.328;20.878;2023-03-04T04:16:07;49.55;;;19.63;;
18251;SDS011;26917;52.328;20.878;2023-03-04T04:18:37;45.88;;;21.80;;
18251;SDS011;26917;52.328;20.878;2023-03-04T04:21:05;46.65;;;20.80;;
18251;SDS011;26917;52.328;20.878;2023-03-04T04:23:36;47.47;;;20.88;;
18251;SDS011;26917;52.328;20.878;2023-03-04T04:26:04;45.42;;;21.38;;
18251;SDS011;26917;52.328;20.878;2023-03-04T04:28:33;49.60;;;22.25;;
18251;SDS011;26917;52.328;20.878;2023-03-04T04:31:01;42.50;;;20.45;;
18251;SDS011;26917;52.328;20.878;2023-03-04T04:33:33;48.55;;;21.20;;
18251;SDS011;26917;52.328;20.878;2023-03-04T04:36:02;45.05;;;20.55;;
18251;SDS011;26917;52.328;20.878;2023-03-04T04:38:31;54.70;;;20.25;;
18251;SDS011;26917;52.328;20.878;2023-03-04T04:41:00;45.72;;;20.17;;
18251;SDS011;26917;52.328;20.878;2023-03-04T04:43:31;42.25;;;20.50;;
18251;SDS011;26917;52.328;20.878;2023-03-04T04:45:59;42.97;;;17.38;;
18251;SDS011;26917;52.328;20.878;2023-03-04T04:48:27;37.58;;;19.27;;
18251;SDS011;26917;52.328;20.878;2023-03-04T04:50:56;41.92;;;19.00;;
18251;SDS011;26917;52.328;20.878;2023-03-04T04:53:24;48.75;;;21.05;;
18251;SDS011;26917;52.328;20.878;2023-03-04T04:55:52;39.50;;;19.83;;
18251;SDS011;26917;52.328;20.878;2023-03-04T04:58:22;42.42;;;19.70;;
18251;SDS011;26917;52.328;20.878;2023-03-04T05:00:50;41.08;;;18.58;;
18251;SDS011;26917;52.328;20.878;2023-03-04T05:03:19;38.92;;;19.48;;
18251;SDS011;26917;52.328;20.878;2023-03-04T05:05:49;45.95;;;18.23;;
18251;SDS011;26917;52.328;20.878;2023-03-04T05:08:17;37.70;;;17.30;;
18251;SDS011;26917;52.328;20.878;2023-03-04T05:10:48;45.65;;;19.77;;
18251;SDS011;26917;52.328;20.878;2023-03-04T05:13:17;34.25;;;16.35;;
18251;SDS011;26917;52.328;20.878;2023-03-04T05:15:47;38.08;;;16.02;;
18251;SDS011;26917;52.328;20.878;2023-03-04T05:18:17;33.53;;;16.80;;
18251;SDS011;26917;52.328;20.878;2023-03-04T05:20:48;36.60;;;16.98;;
18251;SDS011;26917;52.328;20.878;2023-03-04T05:23:18;38.25;;;16.58;;
18251;SDS011;26917;52.328;20.878;2023-03-04T05:25:46;32.13;;;16.13;;
18251;SDS011;26917;52.328;20.878;2023-03-04T05:28:15;38.00;;;17.35;;
18251;SDS011;26917;52.328;20.878;2023-03-04T05:30:44;35.53;;;18.25;;
18251;SDS011;26917;52.328;20.878;2023-03-04T05:33:17;44.67;;;15.52;;
18251;SDS011;26917;52.328;20.878;2023-03-04T05:35:46;37.47;;;16.15;;
18251;SDS011;26917;52.328;20.878;2023-03-04T05:38:15;40.55;;;16.10;;
18251;SDS011;26917;52.328;20.878;2023-03-04T05:40:48;30.33;;;16.40;;
18251;SDS011;26917;52.328;20.878;2023-03-04T05:43:16;34.08;;;16.20;;
18251;SDS011;26917;52.328;20.878;2023-03-04T05:45:46;39.90;;;17.45;;
18251;SDS011;26917;52.328;20.878;2023-03-04T05:48:16;33.85;;;16.05;;
18251;SDS011;26917;52.328;20.878;2023-03-04T05:50:44;31.23;;;16.10;;
18251;SDS011;26917;52.328;20.878;2023-03-04T05:53:13;39.22;;;17.33;;
18251;SDS011;26917;52.328;20.878;2023-03-04T05:55:44;35.67;;;15.35;;
18251;SDS011;26917;52.328;20.878;2023-03-04T05:58:13;38.92;;;15.55;;
18251;SDS011;26917;52.328;20.878;2023-03-04T06:00:43;37.65;;;15.82;;
18251;SDS011;26917;52.328;20.878;2023-03-04T06:03:14;32.00;;;15.18;;
18251;SDS011;26917;52.328;20.878;2023-03-04T06:05:44;34.08;;;15.80;;
18251;SDS011;26917;52.328;20.878;2023-03-04T06:08:12;34.85;;;15.07;;
18251;SDS011;26917;52.328;20.878;2023-03-04T06:10:41;31.13;;;16.38;;
18251;SDS011;26917;52.328;20.878;2023-03-04T06:13:09;27.40;;;13.45;;
18251;SDS011;26917;52.328;20.878;2023-03-04T06:15:38;31.50;;;15.65;;
18251;SDS011;26917;52.328;20.878;2023-03-04T06:18:07;36.72;;;14.60;;
18251;SDS011;26917;52.328;20.878;2023-03-04T06:20:37;35.55;;;15.60;;
18251;SDS011;26917;52.328;20.878;2023-03-04T06:23:06;33.38;;;14.98;;
18251;SDS011;26917;52.328;20.878;2023-03-04T06:25:34;33.72;;;16.80;;
18251;SDS011;26917;52.328;20.878;2023-03-04T06:28:03;34.83;;;15.20;;
18251;SDS011;26917;52.328;20.878;2023-03-04T06:30:32;34.70;;;15.25;;
18251;SDS011;26917;52.328;20.878;2023-03-04T06:33:01;30.75;;;14.68;;
18251;SDS011;26917;52.328;20.878;2023-03-04T06:35:30;34.25;;;16.90;;
18251;SDS011;26917;52.328;20.878;2023-03-04T06:38:00;30.77;;;15.20;;
18251;SDS011;26917;52.328;20.878;2023-03-04T06:40:29;35.38;;;15.13;;
18251;SDS011;26917;52.328;20.878;2023-03-04T06:42:58;30.40;;;14.25;;
18251;SDS011;26917;52.328;20.878;2023-03-04T06:45:27;30.60;;;14.10;;
18251;SDS011;26917;52.328;20.878;2023-03-04T06:47:55;34.25;;;15.00;;
18251;SDS011;26917;52.328;20.878;2023-03-04T06:50:23;34.25;;;16.00;;
18251;SDS011;26917;52.328;20.878;2023-03-04T06:52:52;35.92;;;14.48;;
18251;SDS011;26917;52.328;20.878;2023-03-04T06:55:25;31.70;;;15.88;;
18251;SDS011;26917;52.328;20.878;2023-03-04T06:57:54;35.00;;;14.90;;
18251;SDS011;26917;52.328;20.878;2023-03-04T07:00:23;26.90;;;15.00;;
18251;SDS011;26917;52.328;20.878;2023-03-04T07:02:52;36.20;;;15.23;;
18251;SDS011;26917;52.328;20.878;2023-03-04T07:05:20;32.92;;;15.23;;
18251;SDS011;26917;52.328;20.878;2023-03-04T07:07:49;34.15;;;15.80;;
18251;SDS011;26917;52.328;20.878;2023-03-04T07:10:17;33.47;;;13.93;;
18251;SDS011;26917;52.328;20.878;2023-03-04T07:12:47;29.30;;;15.75;;
18251;SDS011;26917;52.328;20.878;2023-03-04T07:15:16;28.55;;;13.02;;
18251;SDS011;26917;52.328;20.878;2023-03-04T07:17:44;34.35;;;15.07;;
18251;SDS011;26917;52.328;20.878;2023-03-04T07:20:13;32.60;;;15.23;;
18251;SDS011;26917;52.328;20.878;2023-03-04T07:22:41;33.65;;;14.68;;
18251;SDS011;26917;52.328;20.878;2023-03-04T07:25:09;34.53;;;15.95;;
18251;SDS011;26917;52.328;20.878;2023-03-04T07:27:38;28.60;;;14.68;;
18251;SDS011;26917;52.328;20.878;2023-03-04T07:30:09;33.53;;;16.48;;
18251;SDS011;26917;52.328;20.878;2023-03-04T07:32:38;31.25;;;16.73;;
18251;SDS011;26917;52.328;20.878;2023-03-04T07:35:07;28.45;;;15.07;;
18251;SDS011;26917;52.328;20.878;2023-03-04T07:37:35;28.33;;;14.82;;
18251;SDS011;26917;52.328;20.878;2023-03-04T07:40:06;30.25;;;14.10;;
18251;SDS011;26917;52.328;20.878;2023-03-04T07:42:35;39.30;;;15.40;;
18251;SDS011;26917;52.328;20.878;2023-03-04T07:45:10;28.48;;;14.77;;
18251;SDS011;26917;52.328;20.878;2023-03-04T07:47:39;35.78;;;14.20;;
18251;SDS011;26917;52.328;20.878;2023-03-04T07:50:08;24.60;;;12.93;;
18251;SDS011;26917;52.328;20.878;2023-03-04T07:52:38;36.53;;;13.43;;
18251;SDS011;26917;52.328;20.878;2023-03-04T07:55:07;28.55;;;14.45;;
18251;SDS011;26917;52.328;20.878;2023-03-04T07:57:37;27.52;;;13.65;;
18251;SDS011;26917;52.328;20.878;2023-03-04T08:00:06;23.83;;;13.25;;
18251;SDS011;26917;52.328;20.878;2023-03-04T08:02:41;25.98;;;13.38;;
18251;SDS011;26917;52.328;20.878;2023-03-04T08:05:10;29.55;;;13.23;;
18251;SDS011;26917;52.328;20.878;2023-03-04T08:07:38;33.17;;;14.05;;
18251;SDS011;26917;52.328;20.878;2023-03-04T08:10:07;29.25;;;13.23;;
18251;SDS011;26917;52.328;20.878;2023-03-04T08:12:36;23.90;;;13.00;;
18251;SDS011;26917;52.328;20.878;2023-03-04T08:15:05;26.30;;;13.55;;
18251;SDS011;26917;52.328;20.878;2023-03-04T08:17:39;28.20;;;12.93;;
18251;SDS011;26917;52.328;20.878;2023-03-04T08:20:09;23.27;;;13.07;;
18251;SDS011;26917;52.328;20.878;2023-03-04T08:22:39;22.92;;;12.45;;
18251;SDS011;26917;52.328;20.878;2023-03-04T08:25:10;26.15;;;11.13;;
18251;SDS011;26917;52.328;20.878;2023-03-04T08:27:39;23.33;;;12.48;;
18251;SDS011;26917;52.328;20.878;2023-03-04T08:30:07;26.63;;;12.05;;
18251;SDS011;26917;52.328;20.878;2023-03-04T08:32:37;24.17;;;11.90;;
18251;SDS011;26917;52.328;20.878;2023-03-04T08:35:06;28.90;;;11.70;;
18251;SDS011;26917;52.328;20.878;2023-03-04T08:37:36;24.67;;;12.75;;
18251;SDS011;26917;52.328;20.878;2023-03-04T08:40:05;32.05;;;13.00;;
18251;SDS011;26917;52.328;20.878;2023-03-04T08:42:34;32.78;;;11.98;;
18251;SDS011;26917;52.328;20.878;2023-03-04T08:45:03;22.67;;;12.23;;
18251;SDS011;26917;52.328;20.878;2023-03-04T08:47:32;30.50;;;12.27;;
18251;SDS011;26917;52.328;20.878;2023-03-04T08:50:00;21.83;;;12.23;;
18251;SDS011;26917;52.328;20.878;2023-03-04T08:52:28;24.65;;;12.27;;
18251;SDS011;26917;52.328;20.878;2023-03-04T08:54:58;29.77;;;13.45;;
18251;SDS011;26917;52.328;20.878;2023-03-04T08:57:27;33.75;;;12.15;;
18251;SDS011;26917;52.328;20.878;2023-03-04T08:59:56;23.20;;;12.45;;
18251;SDS011;26917;52.328;20.878;2023-03-04T09:02:24;21.90;;;12.18;;
18251;SDS011;26917;52.328;20.878;2023-03-04T09:04:53;21.25;;;11.45;;
18251;SDS011;26917;52.328;20.878;2023-03-04T09:07:21;28.50;;;11.77;;
18251;SDS011;26917;52.328;20.878;2023-03-04T09:09:49;21.90;;;11.98;;
18251;SDS011;26917;52.328;20.878;2023-03-04T09:12:19;22.75;;;11.73;;
18251;SDS011;26917;52.328;20.878;2023-03-04T09:14:49;27.67;;;12.55;;
18251;SDS011;26917;52.328;20.878;2023-03-04T09:17:36;22.90;;;12.00;;
18251;SDS011;26917;52.328;20.878;2023-03-04T09:20:05;26.90;;;12.95;;
18251;SDS011;26917;52.328;20.878;2023-03-04T09:22:35;23.80;;;12.90;;
18251;SDS011;26917;52.328;20.878;2023-03-04T09:25:04;21.77;;;11.75;;
18251;SDS011;26917;52.328;20.878;2023-03-04T09:27:40;23.73;;;12.13;;
18251;SDS011;26917;52.328;20.878;2023-03-04T09:30:09;29.75;;;12.75;;
18251;SDS011;26917;52.328;20.878;2023-03-04T09:32:41;22.30;;;10.93;;
18251;SDS011;26917;52.328;20.878;2023-03-04T09:35:09;18.90;;;10.20;;
18251;SDS011;26917;52.328;20.878;2023-03-04T09:37:38;22.83;;;12.10;;
18251;SDS011;26917;52.328;20.878;2023-03-04T09:40:07;25.80;;;11.35;;
18251;SDS011;26917;52.328;20.878;2023-03-04T09:42:45;23.55;;;10.57;;
18251;SDS011;26917;52.328;20.878;2023-03-04T09:45:17;24.73;;;12.75;;
18251;SDS011;26917;52.328;20.878;2023-03-04T09:47:48;28.67;;;12.85;;
18251;SDS011;26917;52.328;20.878;2023-03-04T09:50:19;31.35;;;11.98;;
18251;SDS011;26917;52.328;20.878;2023-03-04T09:52:53;22.63;;;11.82;;
18251;SDS011;26917;52.328;20.878;2023-03-04T09:55:34;24.95;;;11.63;;
18251;SDS011;26917;52.328;20.878;2023-03-04T09:58:11;28.75;;;11.27;;
18251;SDS011;26917;52.328;20.878;2023-03-04T10:00:51;34.25;;;13.07;;
18251;SDS011;26917;52.328;20.878;2023-03-04T10:03:23;28.55;;;11.20;;
18251;SDS011;26917;52.328;20.878;2023-03-04T10:05:57;26.70;;;12.75;;
18251;SDS011;26917;52.328;20.878;2023-03-04T10:08:40;20.75;;;11.57;;
18251;SDS011;26917;52.328;20.878;2023-03-04T10:11:17;23.85;;;12.00;;
18251;SDS011;26917;52.328;20.878;2023-03-04T10:13:55;24.08;;;11.75;;
18251;SDS011;26917;52.328;20.878;2023-03-04T10:16:30;29.80;;;13.23;;
18251;SDS011;26917;52.328;20.878;2023-03-04T10:19:08;28.05;;;13.13;;
18251;SDS011;26917;52.328;20.878;2023-03-04T10:21:47;23.35;;;12.43;;
18251;SDS011;26917;52.328;20.878;2023-03-04T10:24:17;29.52;;;12.20;;
18251;SDS011;26917;52.328;20.878;2023-03-04T10:26:49;26.00;;;12.80;;
18251;SDS011;26917;52.328;20.878;2023-03-04T10:29:22;28.20;;;13.32;;
18251;SDS011;26917;52.328;20.878;2023-03-04T10:31:51;27.38;;;11.57;;
18251;SDS011;26917;52.328;20.878;2023-03-04T10:34:22;24.20;;;11.68;;
18251;SDS011;26917;52.328;20.878;2023-03-04T10:36:55;22.20;;;11.43;;
18251;SDS011;26917;52.328;20.878;2023-03-04T10:39:29;23.98;;;13.30;;
18251;SDS011;26917;52.328;20.878;2023-03-04T10:41:59;30.10;;;12.43;;
18251;SDS011;26917;52.328;20.878;2023-03-04T10:44:30;33.55;;;13.20;;
18251;SDS011;26917;52.328;20.878;2023-03-04T10:47:00;29.20;;;12.38;;
18251;SDS011;26917;52.328;20.878;2023-03-04T10:49:28;26.70;;;11.85;;
18251;SDS011;26917;52.328;20.878;2023-03-04T10:52:00;21.92;;;11.63;;
18251;SDS011;26917;52.328;20.878;2023-03-04T10:54:30;23.38;;;11.77;;
18251;SDS011;26917;52.328;20.878;2023-03-04T10:57:03;30.92;;;11.50;;
18251;SDS011;26917;52.328;20.878;2023-03-04T10:59:43;24.80;;;11.43;;
18251;SDS011;26917;52.328;20.878;2023-03-04T11:02:20;27.52;;;11.75;;
18251;SDS011;26917;52.328;20.878;2023-03-04T11:04:51;28.40;;;11.93;;
18251;SDS011;26917;52.328;20.878;2023-03-04T11:07:35;24.45;;;12.05;;
18251;SDS011;26917;52.328;20.878;2023-03-04T11:10:21;38.75;;;12.68;;
18251;SDS011;26917;52.328;20.878;2023-03-04T11:12:54;24.17;;;12.52;;
18251;SDS011;26917;52.328;20.878;2023-03-04T11:15:28;24.65;;;12.23;;
18251;SDS011;26917;52.328;20.878;2023-03-04T11:17:58;28.05;;;11.65;;
18251;SDS011;26917;52.328;20.878;2023-03-04T11:20:31;28.70;;;11.68;;
18251;SDS011;26917;52.328;20.878;2023-03-04T11:23:03;28.00;;;13.68;;
18251;SDS011;26917;52.328;20.878;2023-03-04T11:25:34;29.98;;;13.23;;
18251;SDS011;26917;52.328;20.878;2023-03-04T11:28:04;29.77;;;12.15;;
18251;SDS011;26917;52.328;20.878;2023-03-04T11:30:40;27.98;;;12.25;;
18251;SDS011;26917;52.328;20.878;2023-03-04T11:33:15;29.80;;;12.50;;
18251;SDS011;26917;52.328;20.878;2023-03-04T11:35:53;28.98;;;12.55;;
18251;SDS011;26917;52.328;20.878;2023-03-04T11:38:28;30.02;;;12.90;;
18251;SDS011;26917;52.328;20.878;2023-03-04T11:41:02;31.13;;;13.88;;
18251;SDS011;26917;52.328;20.878;2023-03-04T11:43:37;26.17;;;12.68;;
18251;SDS011;26917;52.328;20.878;2023-03-04T11:49:12;25.23;;;11.93;;
18251;SDS011;26917;52.328;20.878;2023-03-04T11:51:50;23.70;;;12.07;;
18251;SDS011;26917;52.328;20.878;2023-03-04T11:54:28;32.45;;;13.50;;
18251;SDS011;26917;52.328;20.878;2023-03-04T11:57:07;29.98;;;14.18;;
18251;SDS011;26917;52.328;20.878;2023-03-04T12:02:46;28.13;;;12.18;;
18251;SDS011;26917;52.328;20.878;2023-03-04T12:05:29;33.40;;;12.95;;
18251;SDS011;26917;52.328;20.878;2023-03-04T12:11:26;31.13;;;13.10;;
18251;SDS011;26917;52.328;20.878;2023-03-04T12:22:51;24.98;;;11.10;;
18251;SDS011;26917;52.328;20.878;2023-03-04T12:25:38;24.75;;;11.98;;
18251;SDS011;26917;52.328;20.878;2023-03-04T12:28:12;28.20;;;13.57;;
18251;SDS011;26917;52.328;20.878;2023-03-04T12:30:51;22.98;;;12.27;;
18251;SDS011;26917;52.328;20.878;2023-03-04T12:33:31;28.08;;;12.18;;
18251;SDS011;26917;52.328;20.878;2023-03-04T12:36:12;27.92;;;12.07;;
18251;SDS011;26917;52.328;20.878;2023-03-04T12:41:45;28.85;;;11.98;;
18251;SDS011;26917;52.328;20.878;2023-03-04T12:44:19;30.17;;;12.00;;
18251;SDS011;26917;52.328;20.878;2023-03-04T12:46:55;26.30;;;11.63;;
18251;SDS011;26917;52.328;20.878;2023-03-04T12:49:45;21.60;;;10.23;;
18251;SDS011;26917;52.328;20.878;2023-03-04T12:52:26;23.83;;;10.98;;
18251;SDS011;26917;52.328;20.878;2023-03-04T12:55:02;21.38;;;11.88;;
18251;SDS011;26917;52.328;20.878;2023-03-04T12:57:37;24.70;;;10.50;;
18251;SDS011;26917;52.328;20.878;2023-03-04T13:00:12;24.00;;;11.82;;
18251;SDS011;26917;52.328;20.878;2023-03-04T13:02:50;30.90;;;11.07;;
18251;SDS011;26917;52.328;20.878;2023-03-04T13:05:32;19.67;;;11.35;;
18251;SDS011;26917;52.328;20.878;2023-03-04T13:08:24;19.55;;;11.23;;
18251;SDS011;26917;52.328;20.878;2023-03-04T13:11:02;20.38;;;11.40;;
18251;SDS011;26917;52.328;20.878;2023-03-04T13:13:59;21.67;;;12.43;;
18251;SDS011;26917;52.328;20.878;2023-03-04T13:16:29;22.90;;;11.93;;
18251;SDS011;26917;52.328;20.878;2023-03-04T13:18:59;24.25;;;11.43;;
18251;SDS011;26917;52.328;20.878;2023-03-04T13:21:27;23.95;;;12.45;;
18251;SDS011;26917;52.328;20.878;2023-03-04T13:24:12;22.30;;;12.88;;
18251;SDS011;26917;52.328;20.878;2023-03-04T13:39:30;6.28;;;3.72;;
18251;SDS011;26917;52.328;20.878;2023-03-04T13:41:59;6.57;;;3.58;;
18251;SDS011;26917;52.328;20.878;2023-03-04T13:44:33;13.23;;;4.82;;
18251;SDS011;26917;52.328;20.878;2023-03-04T13:47:17;5.28;;;3.53;;
18251;SDS011;26917;52.328;20.878;2023-03-04T13:49:49;8.23;;;4.47;;
18251;SDS011;26917;52.328;20.878;2023-03-04T13:53:25;4.03;;;3.58;;
18251;SDS011;26917;52.328;20.878;2023-03-04T13:56:17;6.53;;;4.50;;
18251;SDS011;26917;52.328;20.878;2023-03-04T13:59:01;8.48;;;3.72;;
18251;SDS011;26917;52.328;20.878;2023-03-04T14:01:56;5.05;;;3.65;;
18251;SDS011;26917;52.328;20.878;2023-03-04T14:04:31;4.05;;;3.65;;
18251;SDS011;26917;52.328;20.878;2023-03-04T14:07:02;4.55;;;4.15;;
18251;SDS011;26917;52.328;20.878;2023-03-04T14:09:54;5.78;;;4.05;;
18251;SDS011;26917;52.328;20.878;2023-03-04T14:12:26;6.00;;;3.85;;
18251;SDS011;26917;52.328;20.878;2023-03-04T14:14:57;7.15;;;4.60;;
18251;SDS011;26917;52.328;20.878;2023-03-04T14:17:28;7.55;;;3.63;;
18251;SDS011;26917;52.328;20.878;2023-03-04T14:19:58;6.88;;;4.43;;
18251;SDS011;26917;52.328;20.878;2023-03-04T14:22:29;8.57;;;5.07;;
18251;SDS011;26917;52.328;20.878;2023-03-04T14:25:00;16.05;;;4.47;;
18251;SDS011;26917;52.328;20.878;2023-03-04T14:27:32;12.07;;;4.95;;
18251;SDS011;26917;52.328;20.878;2023-03-04T14:30:02;17.58;;;6.18;;
18251;SDS011;26917;52.328;20.878;2023-03-04T14:32:32;8.48;;;4.72;;
18251;SDS011;26917;52.328;20.878;2023-03-04T14:35:02;9.50;;;4.78;;
18251;SDS011;26917;52.328;20.878;2023-03-04T14:37:36;11.20;;;5.50;;
18251;SDS011;26917;52.328;20.878;2023-03-04T14:40:17;6.97;;;5.30;;
18251;SDS011;26917;52.328;20.878;2023-03-04T14:42:50;9.13;;;5.57;;
18251;SDS011;26917;52.328;20.878;2023-03-04T14:45:22;10.95;;;5.63;;
18251;SDS011;26917;52.328;20.878;2023-03-04T14:47:51;10.40;;;4.88;;
18251;SDS011;26917;52.328;20.878;2023-03-04T14:50:22;8.00;;;5.50;;
18251;SDS011;26917;52.328;20.878;2023-03-04T14:53:11;9.07;;;4.03;;
18251;SDS011;26917;52.328;20.878;2023-03-04T14:58:27;10.15;;;5.20;;
18251;SDS011;26917;52.328;20.878;2023-03-04T15:01:04;7.03;;;4.30;;
18251;SDS011;26917;52.328;20.878;2023-03-04T15:03:39;8.13;;;4.88;;
18251;SDS011;26917;52.328;20.878;2023-03-04T15:06:17;4.00;;;3.55;;
18251;SDS011;26917;52.328;20.878;2023-03-04T15:08:52;4.78;;;4.28;;
18251;SDS011;26917;52.328;20.878;2023-03-04T15:11:25;5.70;;;3.75;;
18251;SDS011;26917;52.328;20.878;2023-03-04T15:14:15;4.13;;;3.65;;